sensor_id;sensor_type;location;lat;lon;timestamp;P1;durP1;ratioP1;P2;durP2;ratioP2
71814;SDS011;59659;41.520;23.794;2023-07-31T00:00:37;9.90;;;4.30;;
71814;SDS011;59659;41.520;23.794;2023-07-31T00:01:48;5.80;;;3.67;;
71814;SDS011;59659;41.520;23.794;2023-07-31T00:03:00;6.57;;;4.20;;
71814;SDS011;59659;41.520;23.794;2023-07-31T00:04:12;5.40;;;3.73;;
71814;SDS011;59659;41.520;23.794;2023-07-31T00:05:23;6.13;;;4.13;;
71814;SDS011;59659;41.520;23.794;2023-07-31T00:06:35;5.50;;;4.20;;
71814;SDS011;59659;41.520;23.794;2023-07-31T00:07:46;6.73;;;4.67;;
71814;SDS011;59659;41.520;23.794;2023-07-31T00:08:58;5.27;;;4.20;;
71814;SDS011;59659;41.520;23.794;2023-07-31T00:10:09;5.93;;;4.00;;
71814;SDS011;59659;41.520;23.794;2023-07-31T00:11:21;5.23;;;3.50;;
71814;SDS011;59659;41.520;23.794;2023-07-31T00:12:32;5.40;;;4.00;;
71814;SDS011;59659;41.520;23.794;2023-07-31T00:13:44;6.13;;;4.13;;
71814;SDS011;59659;41.520;23.794;2023-07-31T00:14:55;8.90;;;4.10;;
71814;SDS011;59659;41.520;23.794;2023-07-31T00:16:07;6.10;;;4.20;;
71814;SDS011;59659;41.520;23.794;2023-07-31T00:17:19;6.43;;;3.83;;
71814;SDS011;59659;41.520;23.794;2023-07-31T00:18:30;5.43;;;3.80;;
71814;SDS011;59659;41.520;23.794;2023-07-31T00:19:42;7.10;;;3.90;;
71814;SDS011;59659;41.520;23.794;2023-07-31T00:20:53;6.03;;;4.30;;
71814;SDS011;59659;41.520;23.794;2023-07-31T00:22:05;8.53;;;4.43;;
71814;SDS011;59659;41.520;23.794;2023-07-31T00:23:16;7.63;;;4.30;;
71814;SDS011;59659;41.520;23.794;2023-07-31T00:24:28;7.13;;;4.20;;
71814;SDS011;59659;41.520;23.794;2023-07-31T00:25:39;7.53;;;3.60;;
71814;SDS011;59659;41.520;23.794;2023-07-31T00:26:51;6.07;;;4.20;;
71814;SDS011;59659;41.520;23.794;2023-07-31T00:28:02;6.67;;;4.17;;
71814;SDS011;59659;41.520;23.794;2023-07-31T00:29:14;6.53;;;3.83;;
71814;SDS011;59659;41.520;23.794;2023-07-31T00:30:25;6.50;;;4.00;;
71814;SDS011;59659;41.520;23.794;2023-07-31T00:31:38;4.50;;;3.57;;
71814;SDS011;59659;41.520;23.794;2023-07-31T00:32:49;5.83;;;4.17;;
71814;SDS011;59659;41.520;23.794;2023-07-31T00:34:01;7.40;;;4.93;;
71814;SDS011;59659;41.520;23.794;2023-07-31T00:35:13;7.27;;;4.47;;
71814;SDS011;59659;41.520;23.794;2023-07-31T00:36:24;5.17;;;4.30;;
71814;SDS011;59659;41.520;23.794;2023-07-31T00:37:36;10.83;;;4.30;;
71814;SDS011;59659;41.520;23.794;2023-07-31T00:38:47;8.87;;;4.27;;
71814;SDS011;59659;41.520;23.794;2023-07-31T00:39:59;5.13;;;4.13;;
71814;SDS011;59659;41.520;23.794;2023-07-31T00:41:10;7.43;;;4.40;;
71814;SDS011;59659;41.520;23.794;2023-07-31T00:42:22;10.03;;;3.87;;
71814;SDS011;59659;41.520;23.794;2023-07-31T00:43:34;5.57;;;3.97;;
71814;SDS011;59659;41.520;23.794;2023-07-31T00:44:45;6.13;;;4.37;;
71814;SDS011;59659;41.520;23.794;2023-07-31T00:45:57;7.53;;;4.90;;
71814;SDS011;59659;41.520;23.794;2023-07-31T00:47:08;6.20;;;4.27;;
71814;SDS011;59659;41.520;23.794;2023-07-31T00:48:20;8.93;;;4.47;;
71814;SDS011;59659;41.520;23.794;2023-07-31T00:49:32;4.57;;;3.17;;
71814;SDS011;59659;41.520;23.794;2023-07-31T00:50:44;5.90;;;3.83;;
71814;SDS011;59659;41.520;23.794;2023-07-31T00:51:55;7.90;;;4.33;;
71814;SDS011;59659;41.520;23.794;2023-07-31T00:53:08;6.43;;;4.07;;
71814;SDS011;59659;41.520;23.794;2023-07-31T00:54:20;7.10;;;4.63;;
71814;SDS011;59659;41.520;23.794;2023-07-31T00:55:32;6.33;;;4.10;;
71814;SDS011;59659;41.520;23.794;2023-07-31T00:56:44;5.97;;;3.67;;
71814;SDS011;59659;41.520;23.794;2023-07-31T00:57:56;5.53;;;4.13;;
71814;SDS011;59659;41.520;23.794;2023-07-31T00:59:08;5.60;;;3.97;;
71814;SDS011;59659;41.520;23.794;2023-07-31T01:00:19;7.73;;;3.83;;
71814;SDS011;59659;41.520;23.794;2023-07-31T01:01:31;6.90;;;4.20;;
71814;SDS011;59659;41.520;23.794;2023-07-31T01:02:42;7.00;;;4.13;;
71814;SDS011;59659;41.520;23.794;2023-07-31T01:03:54;8.80;;;4.03;;
71814;SDS011;59659;41.520;23.794;2023-07-31T01:05:06;7.13;;;3.77;;
71814;SDS011;59659;41.520;23.794;2023-07-31T01:06:22;6.57;;;4.30;;
71814;SDS011;59659;41.520;23.794;2023-07-31T01:10:16;4.77;;;3.70;;
71814;SDS011;59659;41.520;23.794;2023-07-31T01:11:29;6.40;;;3.83;;
71814;SDS011;59659;41.520;23.794;2023-07-31T01:12:41;9.30;;;4.00;;
71814;SDS011;59659;41.520;23.794;2023-07-31T01:13:53;5.93;;;4.00;;
71814;SDS011;59659;41.520;23.794;2023-07-31T01:15:06;6.90;;;4.33;;
71814;SDS011;59659;41.520;23.794;2023-07-31T01:16:20;6.33;;;4.17;;
71814;SDS011;59659;41.520;23.794;2023-07-31T01:17:32;6.93;;;3.70;;
71814;SDS011;59659;41.520;23.794;2023-07-31T01:18:44;6.77;;;4.10;;
71814;SDS011;59659;41.520;23.794;2023-07-31T01:19:55;9.90;;;4.63;;
71814;SDS011;59659;41.520;23.794;2023-07-31T01:27:24;6.87;;;3.73;;
71814;SDS011;59659;41.520;23.794;2023-07-31T01:30:11;7.23;;;4.00;;
71814;SDS011;59659;41.520;23.794;2023-07-31T01:31:28;7.23;;;4.00;;
71814;SDS011;59659;41.520;23.794;2023-07-31T01:32:41;5.50;;;3.70;;
71814;SDS011;59659;41.520;23.794;2023-07-31T01:33:53;13.73;;;4.20;;
71814;SDS011;59659;41.520;23.794;2023-07-31T01:35:06;7.73;;;4.57;;
71814;SDS011;59659;41.520;23.794;2023-07-31T01:36:18;6.27;;;4.10;;
71814;SDS011;59659;41.520;23.794;2023-07-31T01:37:29;6.17;;;3.90;;
71814;SDS011;59659;41.520;23.794;2023-07-31T01:38:41;6.43;;;3.83;;
71814;SDS011;59659;41.520;23.794;2023-07-31T01:39:52;5.33;;;3.87;;
71814;SDS011;59659;41.520;23.794;2023-07-31T01:41:04;6.00;;;3.97;;
71814;SDS011;59659;41.520;23.794;2023-07-31T01:42:15;5.20;;;3.80;;
71814;SDS011;59659;41.520;23.794;2023-07-31T01:43:27;6.53;;;4.20;;
71814;SDS011;59659;41.520;23.794;2023-07-31T01:44:38;8.17;;;4.00;;
71814;SDS011;59659;41.520;23.794;2023-07-31T01:45:50;9.03;;;4.30;;
71814;SDS011;59659;41.520;23.794;2023-07-31T01:47:01;6.47;;;4.07;;
71814;SDS011;59659;41.520;23.794;2023-07-31T01:48:13;6.50;;;4.30;;
71814;SDS011;59659;41.520;23.794;2023-07-31T01:49:25;6.90;;;3.37;;
71814;SDS011;59659;41.520;23.794;2023-07-31T01:50:36;5.10;;;3.67;;
71814;SDS011;59659;41.520;23.794;2023-07-31T01:51:48;5.47;;;4.37;;
71814;SDS011;59659;41.520;23.794;2023-07-31T01:52:59;5.57;;;4.50;;
71814;SDS011;59659;41.520;23.794;2023-07-31T01:54:11;6.73;;;4.33;;
71814;SDS011;59659;41.520;23.794;2023-07-31T01:55:22;6.97;;;4.67;;
71814;SDS011;59659;41.520;23.794;2023-07-31T01:56:34;8.03;;;5.13;;
71814;SDS011;59659;41.520;23.794;2023-07-31T01:57:45;6.90;;;4.50;;
71814;SDS011;59659;41.520;23.794;2023-07-31T01:58:57;6.27;;;4.30;;
71814;SDS011;59659;41.520;23.794;2023-07-31T02:00:08;8.73;;;4.20;;
71814;SDS011;59659;41.520;23.794;2023-07-31T02:01:20;14.30;;;5.77;;
71814;SDS011;59659;41.520;23.794;2023-07-31T02:02:31;6.10;;;4.40;;
71814;SDS011;59659;41.520;23.794;2023-07-31T02:03:43;7.13;;;4.97;;
71814;SDS011;59659;41.520;23.794;2023-07-31T02:04:55;6.53;;;5.20;;
71814;SDS011;59659;41.520;23.794;2023-07-31T02:06:06;7.47;;;4.33;;
71814;SDS011;59659;41.520;23.794;2023-07-31T02:07:18;9.37;;;4.80;;
71814;SDS011;59659;41.520;23.794;2023-07-31T02:08:29;7.00;;;4.70;;
71814;SDS011;59659;41.520;23.794;2023-07-31T02:09:41;9.93;;;5.27;;
71814;SDS011;59659;41.520;23.794;2023-07-31T02:10:53;10.23;;;4.93;;
71814;SDS011;59659;41.520;23.794;2023-07-31T02:12:05;7.03;;;4.57;;
71814;SDS011;59659;41.520;23.794;2023-07-31T02:13:16;7.00;;;5.03;;
71814;SDS011;59659;41.520;23.794;2023-07-31T02:14:28;6.77;;;5.07;;
71814;SDS011;59659;41.520;23.794;2023-07-31T02:15:39;5.93;;;4.60;;
71814;SDS011;59659;41.520;23.794;2023-07-31T02:16:51;11.20;;;5.20;;
71814;SDS011;59659;41.520;23.794;2023-07-31T02:18:03;6.87;;;4.77;;
71814;SDS011;59659;41.520;23.794;2023-07-31T02:19:14;9.97;;;4.73;;
71814;SDS011;59659;41.520;23.794;2023-07-31T02:20:26;7.07;;;4.90;;
71814;SDS011;59659;41.520;23.794;2023-07-31T02:21:37;8.23;;;5.33;;
71814;SDS011;59659;41.520;23.794;2023-07-31T02:22:49;8.07;;;4.90;;
71814;SDS011;59659;41.520;23.794;2023-07-31T02:24:00;7.97;;;5.00;;
71814;SDS011;59659;41.520;23.794;2023-07-31T02:25:12;7.17;;;5.33;;
71814;SDS011;59659;41.520;23.794;2023-07-31T02:26:24;6.30;;;4.67;;
71814;SDS011;59659;41.520;23.794;2023-07-31T02:27:35;5.83;;;4.43;;
71814;SDS011;59659;41.520;23.794;2023-07-31T02:28:46;10.90;;;4.83;;
71814;SDS011;59659;41.520;23.794;2023-07-31T02:29:58;8.37;;;5.00;;
71814;SDS011;59659;41.520;23.794;2023-07-31T02:31:10;7.00;;;5.30;;
71814;SDS011;59659;41.520;23.794;2023-07-31T02:32:22;9.20;;;5.07;;
71814;SDS011;59659;41.520;23.794;2023-07-31T02:33:33;7.87;;;5.10;;
71814;SDS011;59659;41.520;23.794;2023-07-31T02:34:45;6.80;;;5.27;;
71814;SDS011;59659;41.520;23.794;2023-07-31T02:35:56;7.27;;;4.83;;
71814;SDS011;59659;41.520;23.794;2023-07-31T02:37:08;7.97;;;5.00;;
71814;SDS011;59659;41.520;23.794;2023-07-31T02:38:19;9.33;;;5.43;;
71814;SDS011;59659;41.520;23.794;2023-07-31T02:39:31;6.50;;;4.90;;
71814;SDS011;59659;41.520;23.794;2023-07-31T02:40:42;8.30;;;4.93;;
71814;SDS011;59659;41.520;23.794;2023-07-31T02:41:54;6.90;;;4.87;;
71814;SDS011;59659;41.520;23.794;2023-07-31T02:43:05;7.20;;;4.67;;
71814;SDS011;59659;41.520;23.794;2023-07-31T02:44:17;6.87;;;4.70;;
71814;SDS011;59659;41.520;23.794;2023-07-31T02:45:29;7.33;;;4.57;;
71814;SDS011;59659;41.520;23.794;2023-07-31T02:46:40;7.17;;;4.50;;
71814;SDS011;59659;41.520;23.794;2023-07-31T02:47:52;6.87;;;4.80;;
71814;SDS011;59659;41.520;23.794;2023-07-31T02:49:04;7.00;;;5.07;;
71814;SDS011;59659;41.520;23.794;2023-07-31T02:50:15;5.13;;;4.30;;
71814;SDS011;59659;41.520;23.794;2023-07-31T02:51:27;5.77;;;4.43;;
71814;SDS011;59659;41.520;23.794;2023-07-31T02:52:38;7.57;;;4.93;;
71814;SDS011;59659;41.520;23.794;2023-07-31T02:53:50;8.80;;;4.70;;
71814;SDS011;59659;41.520;23.794;2023-07-31T02:55:02;9.77;;;5.20;;
71814;SDS011;59659;41.520;23.794;2023-07-31T02:56:13;6.10;;;4.50;;
71814;SDS011;59659;41.520;23.794;2023-07-31T02:57:25;7.67;;;5.10;;
71814;SDS011;59659;41.520;23.794;2023-07-31T02:58:36;4.90;;;3.83;;
71814;SDS011;59659;41.520;23.794;2023-07-31T02:59:48;6.63;;;4.27;;
71814;SDS011;59659;41.520;23.794;2023-07-31T03:00:59;5.20;;;3.93;;
71814;SDS011;59659;41.520;23.794;2023-07-31T03:02:11;5.07;;;4.03;;
71814;SDS011;59659;41.520;23.794;2023-07-31T03:03:24;7.33;;;4.80;;
71814;SDS011;59659;41.520;23.794;2023-07-31T03:04:36;5.67;;;4.10;;
71814;SDS011;59659;41.520;23.794;2023-07-31T03:05:47;4.77;;;3.70;;
71814;SDS011;59659;41.520;23.794;2023-07-31T03:06:59;8.97;;;4.70;;
71814;SDS011;59659;41.520;23.794;2023-07-31T03:08:10;6.93;;;4.70;;
71814;SDS011;59659;41.520;23.794;2023-07-31T03:09:22;8.00;;;4.47;;
71814;SDS011;59659;41.520;23.794;2023-07-31T03:10:33;5.80;;;4.00;;
71814;SDS011;59659;41.520;23.794;2023-07-31T03:11:45;5.10;;;4.37;;
71814;SDS011;59659;41.520;23.794;2023-07-31T03:12:56;6.63;;;4.90;;
71814;SDS011;59659;41.520;23.794;2023-07-31T03:14:08;13.90;;;4.43;;
71814;SDS011;59659;41.520;23.794;2023-07-31T03:15:19;7.47;;;4.53;;
71814;SDS011;59659;41.520;23.794;2023-07-31T03:16:31;9.53;;;5.07;;
71814;SDS011;59659;41.520;23.794;2023-07-31T03:17:42;6.97;;;4.30;;
71814;SDS011;59659;41.520;23.794;2023-07-31T03:18:54;12.27;;;5.13;;
71814;SDS011;59659;41.520;23.794;2023-07-31T03:20:06;6.47;;;4.60;;
71814;SDS011;59659;41.520;23.794;2023-07-31T03:21:17;6.87;;;4.07;;
71814;SDS011;59659;41.520;23.794;2023-07-31T03:22:29;8.57;;;4.67;;
71814;SDS011;59659;41.520;23.794;2023-07-31T03:23:40;6.27;;;4.37;;
71814;SDS011;59659;41.520;23.794;2023-07-31T03:24:52;7.10;;;4.30;;
71814;SDS011;59659;41.520;23.794;2023-07-31T03:26:06;5.67;;;4.30;;
71814;SDS011;59659;41.520;23.794;2023-07-31T03:27:18;7.00;;;4.30;;
71814;SDS011;59659;41.520;23.794;2023-07-31T03:28:29;5.90;;;4.00;;
71814;SDS011;59659;41.520;23.794;2023-07-31T03:29:41;7.33;;;4.47;;
71814;SDS011;59659;41.520;23.794;2023-07-31T03:30:53;6.53;;;4.50;;
71814;SDS011;59659;41.520;23.794;2023-07-31T03:32:04;7.23;;;4.70;;
71814;SDS011;59659;41.520;23.794;2023-07-31T03:33:16;6.37;;;4.27;;
71814;SDS011;59659;41.520;23.794;2023-07-31T03:34:28;6.90;;;4.87;;
71814;SDS011;59659;41.520;23.794;2023-07-31T03:35:39;6.67;;;4.30;;
71814;SDS011;59659;41.520;23.794;2023-07-31T03:36:51;7.27;;;4.10;;
71814;SDS011;59659;41.520;23.794;2023-07-31T03:38:02;7.13;;;4.97;;
71814;SDS011;59659;41.520;23.794;2023-07-31T03:39:14;7.33;;;4.33;;
71814;SDS011;59659;41.520;23.794;2023-07-31T03:40:25;8.93;;;5.30;;
71814;SDS011;59659;41.520;23.794;2023-07-31T03:41:37;9.47;;;5.57;;
71814;SDS011;59659;41.520;23.794;2023-07-31T03:42:48;6.53;;;4.70;;
71814;SDS011;59659;41.520;23.794;2023-07-31T03:44:00;7.33;;;5.07;;
71814;SDS011;59659;41.520;23.794;2023-07-31T03:45:11;6.60;;;4.83;;
71814;SDS011;59659;41.520;23.794;2023-07-31T03:46:23;8.23;;;4.73;;
71814;SDS011;59659;41.520;23.794;2023-07-31T03:47:35;10.23;;;5.30;;
71814;SDS011;59659;41.520;23.794;2023-07-31T03:48:47;8.17;;;5.40;;
71814;SDS011;59659;41.520;23.794;2023-07-31T03:49:58;10.73;;;4.87;;
71814;SDS011;59659;41.520;23.794;2023-07-31T03:51:10;8.83;;;5.17;;
71814;SDS011;59659;41.520;23.794;2023-07-31T03:52:22;15.07;;;5.43;;
71814;SDS011;59659;41.520;23.794;2023-07-31T03:53:33;9.70;;;4.90;;
71814;SDS011;59659;41.520;23.794;2023-07-31T03:54:45;9.37;;;5.30;;
71814;SDS011;59659;41.520;23.794;2023-07-31T03:55:57;8.20;;;5.30;;
71814;SDS011;59659;41.520;23.794;2023-07-31T03:57:08;8.83;;;4.90;;
71814;SDS011;59659;41.520;23.794;2023-07-31T03:58:20;10.00;;;6.00;;
71814;SDS011;59659;41.520;23.794;2023-07-31T03:59:31;11.67;;;5.87;;
71814;SDS011;59659;41.520;23.794;2023-07-31T04:00:43;8.93;;;5.57;;
71814;SDS011;59659;41.520;23.794;2023-07-31T04:01:54;7.17;;;5.40;;
71814;SDS011;59659;41.520;23.794;2023-07-31T04:03:06;6.83;;;5.33;;
71814;SDS011;59659;41.520;23.794;2023-07-31T04:04:18;9.73;;;6.53;;
71814;SDS011;59659;41.520;23.794;2023-07-31T04:05:30;7.60;;;5.97;;
71814;SDS011;59659;41.520;23.794;2023-07-31T04:06:41;8.07;;;5.40;;
71814;SDS011;59659;41.520;23.794;2023-07-31T04:07:53;8.23;;;5.20;;
71814;SDS011;59659;41.520;23.794;2023-07-31T04:09:05;7.83;;;5.60;;
71814;SDS011;59659;41.520;23.794;2023-07-31T04:10:16;11.03;;;5.53;;
71814;SDS011;59659;41.520;23.794;2023-07-31T04:11:28;9.07;;;5.73;;
71814;SDS011;59659;41.520;23.794;2023-07-31T04:12:39;8.33;;;6.33;;
71814;SDS011;59659;41.520;23.794;2023-07-31T04:13:51;11.37;;;7.27;;
71814;SDS011;59659;41.520;23.794;2023-07-31T04:15:03;11.07;;;5.80;;
71814;SDS011;59659;41.520;23.794;2023-07-31T04:16:15;9.80;;;6.40;;
71814;SDS011;59659;41.520;23.794;2023-07-31T04:17:26;9.87;;;6.50;;
71814;SDS011;59659;41.520;23.794;2023-07-31T04:18:38;9.47;;;6.10;;
71814;SDS011;59659;41.520;23.794;2023-07-31T04:19:49;7.93;;;6.03;;
71814;SDS011;59659;41.520;23.794;2023-07-31T04:21:01;11.27;;;6.37;;
71814;SDS011;59659;41.520;23.794;2023-07-31T04:22:13;8.33;;;5.70;;
71814;SDS011;59659;41.520;23.794;2023-07-31T04:23:25;7.83;;;5.83;;
71814;SDS011;59659;41.520;23.794;2023-07-31T04:24:36;7.43;;;5.37;;
71814;SDS011;59659;41.520;23.794;2023-07-31T04:25:48;9.67;;;5.73;;
71814;SDS011;59659;41.520;23.794;2023-07-31T04:27:00;8.13;;;5.30;;
71814;SDS011;59659;41.520;23.794;2023-07-31T04:28:11;8.97;;;5.93;;
71814;SDS011;59659;41.520;23.794;2023-07-31T04:29:23;7.60;;;5.13;;
71814;SDS011;59659;41.520;23.794;2023-07-31T04:30:35;8.90;;;5.57;;
71814;SDS011;59659;41.520;23.794;2023-07-31T04:31:47;10.73;;;5.77;;
71814;SDS011;59659;41.520;23.794;2023-07-31T04:32:59;10.97;;;5.43;;
71814;SDS011;59659;41.520;23.794;2023-07-31T04:34:11;8.83;;;5.70;;
71814;SDS011;59659;41.520;23.794;2023-07-31T04:35:25;9.60;;;4.87;;
71814;SDS011;59659;41.520;23.794;2023-07-31T04:36:37;7.50;;;5.30;;
71814;SDS011;59659;41.520;23.794;2023-07-31T04:37:49;7.97;;;5.50;;
71814;SDS011;59659;41.520;23.794;2023-07-31T04:39:00;9.97;;;5.80;;
71814;SDS011;59659;41.520;23.794;2023-07-31T04:40:12;7.50;;;5.70;;
71814;SDS011;59659;41.520;23.794;2023-07-31T04:41:24;10.80;;;6.67;;
71814;SDS011;59659;41.520;23.794;2023-07-31T04:42:35;7.10;;;5.37;;
71814;SDS011;59659;41.520;23.794;2023-07-31T04:43:47;10.17;;;5.90;;
71814;SDS011;59659;41.520;23.794;2023-07-31T04:44:59;10.10;;;5.80;;
71814;SDS011;59659;41.520;23.794;2023-07-31T04:46:10;9.20;;;5.73;;
71814;SDS011;59659;41.520;23.794;2023-07-31T04:47:22;8.87;;;6.20;;
71814;SDS011;59659;41.520;23.794;2023-07-31T04:48:33;8.07;;;5.70;;
71814;SDS011;59659;41.520;23.794;2023-07-31T04:49:45;9.27;;;5.37;;
71814;SDS011;59659;41.520;23.794;2023-07-31T04:50:57;8.13;;;5.23;;
71814;SDS011;59659;41.520;23.794;2023-07-31T04:52:08;9.77;;;6.27;;
71814;SDS011;59659;41.520;23.794;2023-07-31T04:53:20;10.07;;;6.50;;
71814;SDS011;59659;41.520;23.794;2023-07-31T04:54:31;11.70;;;7.63;;
71814;SDS011;59659;41.520;23.794;2023-07-31T04:55:43;10.63;;;7.43;;
71814;SDS011;59659;41.520;23.794;2023-07-31T04:56:54;10.77;;;6.90;;
71814;SDS011;59659;41.520;23.794;2023-07-31T04:58:06;11.70;;;7.53;;
71814;SDS011;59659;41.520;23.794;2023-07-31T04:59:17;25.00;;;11.87;;
71814;SDS011;59659;41.520;23.794;2023-07-31T05:00:29;57.07;;;26.10;;
71814;SDS011;59659;41.520;23.794;2023-07-31T05:01:41;45.33;;;19.03;;
71814;SDS011;59659;41.520;23.794;2023-07-31T05:02:52;29.70;;;14.07;;
71814;SDS011;59659;41.520;23.794;2023-07-31T05:04:04;53.93;;;22.37;;
71814;SDS011;59659;41.520;23.794;2023-07-31T05:05:16;71.63;;;30.90;;
71814;SDS011;59659;41.520;23.794;2023-07-31T05:06:27;65.30;;;28.80;;
71814;SDS011;59659;41.520;23.794;2023-07-31T05:07:39;47.57;;;23.40;;
71814;SDS011;59659;41.520;23.794;2023-07-31T05:08:50;32.83;;;17.17;;
71814;SDS011;59659;41.520;23.794;2023-07-31T05:10:02;32.17;;;15.10;;
71814;SDS011;59659;41.520;23.794;2023-07-31T05:11:13;25.97;;;13.50;;
71814;SDS011;59659;41.520;23.794;2023-07-31T05:12:25;30.07;;;14.70;;
71814;SDS011;59659;41.520;23.794;2023-07-31T05:13:37;15.47;;;9.63;;
71814;SDS011;59659;41.520;23.794;2023-07-31T05:14:48;16.77;;;9.50;;
71814;SDS011;59659;41.520;23.794;2023-07-31T05:16:00;15.37;;;9.83;;
71814;SDS011;59659;41.520;23.794;2023-07-31T05:17:13;16.20;;;9.97;;
71814;SDS011;59659;41.520;23.794;2023-07-31T05:18:25;11.77;;;7.87;;
71814;SDS011;59659;41.520;23.794;2023-07-31T05:19:36;18.00;;;7.97;;
71814;SDS011;59659;41.520;23.794;2023-07-31T05:20:48;15.97;;;8.87;;
71814;SDS011;59659;41.520;23.794;2023-07-31T05:22:00;12.57;;;8.10;;
71814;SDS011;59659;41.520;23.794;2023-07-31T05:23:11;17.63;;;9.47;;
71814;SDS011;59659;41.520;23.794;2023-07-31T05:24:23;13.47;;;8.07;;
71814;SDS011;59659;41.520;23.794;2023-07-31T05:25:34;12.80;;;8.27;;
71814;SDS011;59659;41.520;23.794;2023-07-31T05:26:46;15.63;;;8.77;;
71814;SDS011;59659;41.520;23.794;2023-07-31T05:27:57;12.90;;;8.43;;
71814;SDS011;59659;41.520;23.794;2023-07-31T05:29:09;13.90;;;8.23;;
71814;SDS011;59659;41.520;23.794;2023-07-31T05:30:20;11.20;;;7.13;;
71814;SDS011;59659;41.520;23.794;2023-07-31T05:31:32;10.47;;;6.47;;
71814;SDS011;59659;41.520;23.794;2023-07-31T05:32:44;7.63;;;6.23;;
71814;SDS011;59659;41.520;23.794;2023-07-31T05:33:55;11.23;;;6.50;;
71814;SDS011;59659;41.520;23.794;2023-07-31T05:35:07;10.03;;;6.17;;
71814;SDS011;59659;41.520;23.794;2023-07-31T05:36:18;9.57;;;5.90;;
71814;SDS011;59659;41.520;23.794;2023-07-31T05:37:30;9.93;;;6.27;;
71814;SDS011;59659;41.520;23.794;2023-07-31T05:38:42;9.93;;;6.40;;
71814;SDS011;59659;41.520;23.794;2023-07-31T05:39:55;9.80;;;6.30;;
71814;SDS011;59659;41.520;23.794;2023-07-31T05:41:06;7.87;;;6.10;;
71814;SDS011;59659;41.520;23.794;2023-07-31T05:42:18;8.83;;;6.57;;
71814;SDS011;59659;41.520;23.794;2023-07-31T05:43:30;20.07;;;6.03;;
71814;SDS011;59659;41.520;23.794;2023-07-31T05:44:41;10.03;;;6.37;;
71814;SDS011;59659;41.520;23.794;2023-07-31T05:45:53;10.47;;;6.47;;
71814;SDS011;59659;41.520;23.794;2023-07-31T05:47:05;8.50;;;6.03;;
71814;SDS011;59659;41.520;23.794;2023-07-31T05:48:16;8.27;;;5.37;;
71814;SDS011;59659;41.520;23.794;2023-07-31T05:49:28;7.87;;;5.30;;
71814;SDS011;59659;41.520;23.794;2023-07-31T05:50:40;14.37;;;6.63;;
71814;SDS011;59659;41.520;23.794;2023-07-31T05:51:51;8.23;;;5.67;;
71814;SDS011;59659;41.520;23.794;2023-07-31T05:53:03;11.13;;;6.30;;
71814;SDS011;59659;41.520;23.794;2023-07-31T05:54:14;12.47;;;6.20;;
71814;SDS011;59659;41.520;23.794;2023-07-31T05:55:26;14.27;;;6.90;;
71814;SDS011;59659;41.520;23.794;2023-07-31T05:56:40;9.17;;;6.63;;
71814;SDS011;59659;41.520;23.794;2023-07-31T05:57:53;9.17;;;6.27;;
71814;SDS011;59659;41.520;23.794;2023-07-31T05:59:04;7.00;;;5.57;;
71814;SDS011;59659;41.520;23.794;2023-07-31T06:00:16;7.70;;;5.87;;
71814;SDS011;59659;41.520;23.794;2023-07-31T06:01:27;9.77;;;6.30;;
71814;SDS011;59659;41.520;23.794;2023-07-31T06:02:39;9.20;;;6.40;;
71814;SDS011;59659;41.520;23.794;2023-07-31T06:03:51;10.37;;;6.20;;
71814;SDS011;59659;41.520;23.794;2023-07-31T06:05:04;8.90;;;6.10;;
71814;SDS011;59659;41.520;23.794;2023-07-31T06:06:17;8.67;;;5.97;;
71814;SDS011;59659;41.520;23.794;2023-07-31T06:07:28;8.50;;;6.03;;
71814;SDS011;59659;41.520;23.794;2023-07-31T06:08:40;10.40;;;5.77;;
71814;SDS011;59659;41.520;23.794;2023-07-31T06:09:52;10.87;;;6.70;;
71814;SDS011;59659;41.520;23.794;2023-07-31T06:11:06;11.20;;;6.53;;
71814;SDS011;59659;41.520;23.794;2023-07-31T06:12:18;10.23;;;6.40;;
71814;SDS011;59659;41.520;23.794;2023-07-31T06:13:30;10.37;;;6.17;;
71814;SDS011;59659;41.520;23.794;2023-07-31T06:14:41;9.17;;;5.57;;
71814;SDS011;59659;41.520;23.794;2023-07-31T06:15:53;9.03;;;6.60;;
71814;SDS011;59659;41.520;23.794;2023-07-31T06:17:05;10.83;;;6.30;;
71814;SDS011;59659;41.520;23.794;2023-07-31T06:18:20;9.43;;;7.07;;
71814;SDS011;59659;41.520;23.794;2023-07-31T06:19:32;10.73;;;5.47;;
71814;SDS011;59659;41.520;23.794;2023-07-31T06:20:43;11.07;;;6.20;;
71814;SDS011;59659;41.520;23.794;2023-07-31T06:21:55;12.40;;;6.10;;
71814;SDS011;59659;41.520;23.794;2023-07-31T06:23:07;9.00;;;6.30;;
71814;SDS011;59659;41.520;23.794;2023-07-31T06:24:19;11.00;;;7.03;;
71814;SDS011;59659;41.520;23.794;2023-07-31T06:25:32;12.30;;;5.40;;
71814;SDS011;59659;41.520;23.794;2023-07-31T06:26:43;8.53;;;6.20;;
71814;SDS011;59659;41.520;23.794;2023-07-31T06:27:55;7.77;;;5.67;;
71814;SDS011;59659;41.520;23.794;2023-07-31T06:29:06;10.63;;;5.83;;
71814;SDS011;59659;41.520;23.794;2023-07-31T06:30:18;11.90;;;6.00;;
71814;SDS011;59659;41.520;23.794;2023-07-31T06:31:30;9.37;;;5.67;;
71814;SDS011;59659;41.520;23.794;2023-07-31T06:32:41;7.73;;;5.50;;
71814;SDS011;59659;41.520;23.794;2023-07-31T06:33:54;8.17;;;6.00;;
71814;SDS011;59659;41.520;23.794;2023-07-31T06:35:05;15.03;;;7.67;;
71814;SDS011;59659;41.520;23.794;2023-07-31T06:36:17;11.50;;;5.53;;
71814;SDS011;59659;41.520;23.794;2023-07-31T06:37:29;6.90;;;5.20;;
71814;SDS011;59659;41.520;23.794;2023-07-31T06:38:40;10.73;;;5.30;;
71814;SDS011;59659;41.520;23.794;2023-07-31T06:39:52;8.20;;;5.33;;
71814;SDS011;59659;41.520;23.794;2023-07-31T06:41:04;10.90;;;5.20;;
71814;SDS011;59659;41.520;23.794;2023-07-31T06:42:15;6.40;;;4.57;;
71814;SDS011;59659;41.520;23.794;2023-07-31T06:43:27;6.83;;;4.73;;
71814;SDS011;59659;41.520;23.794;2023-07-31T06:44:40;9.93;;;6.33;;
71814;SDS011;59659;41.520;23.794;2023-07-31T06:45:51;8.30;;;5.10;;
71814;SDS011;59659;41.520;23.794;2023-07-31T06:47:03;7.23;;;5.27;;
71814;SDS011;59659;41.520;23.794;2023-07-31T06:48:14;8.02;;;5.38;;
71814;SDS011;59659;41.520;23.794;2023-07-31T06:49:26;9.47;;;5.33;;
71814;SDS011;59659;41.520;23.794;2023-07-31T06:50:37;8.73;;;5.70;;
71814;SDS011;59659;41.520;23.794;2023-07-31T06:51:49;7.40;;;5.13;;
71814;SDS011;59659;41.520;23.794;2023-07-31T06:53:00;8.67;;;4.50;;
71814;SDS011;59659;41.520;23.794;2023-07-31T06:54:12;6.47;;;4.50;;
71814;SDS011;59659;41.520;23.794;2023-07-31T06:55:24;7.00;;;5.30;;
71814;SDS011;59659;41.520;23.794;2023-07-31T06:56:35;7.50;;;4.33;;
71814;SDS011;59659;41.520;23.794;2023-07-31T06:57:51;8.33;;;5.13;;
71814;SDS011;59659;41.520;23.794;2023-07-31T06:59:03;7.55;;;4.53;;
71814;SDS011;59659;41.520;23.794;2023-07-31T07:00:15;8.15;;;4.60;;
71814;SDS011;59659;41.520;23.794;2023-07-31T07:01:27;15.63;;;5.00;;
71814;SDS011;59659;41.520;23.794;2023-07-31T07:02:40;6.00;;;4.70;;
71814;SDS011;59659;41.520;23.794;2023-07-31T07:03:51;6.13;;;4.75;;
71814;SDS011;59659;41.520;23.794;2023-07-31T07:05:03;6.03;;;4.43;;
71814;SDS011;59659;41.520;23.794;2023-07-31T07:06:15;6.43;;;4.53;;
71814;SDS011;59659;41.520;23.794;2023-07-31T07:07:26;6.72;;;4.30;;
71814;SDS011;59659;41.520;23.794;2023-07-31T07:08:38;5.50;;;4.15;;
71814;SDS011;59659;41.520;23.794;2023-07-31T07:09:50;8.35;;;4.35;;
71814;SDS011;59659;41.520;23.794;2023-07-31T07:11:01;5.43;;;3.72;;
71814;SDS011;59659;41.520;23.794;2023-07-31T07:12:13;5.85;;;4.05;;
71814;SDS011;59659;41.520;23.794;2023-07-31T07:13:24;5.22;;;4.03;;
71814;SDS011;59659;41.520;23.794;2023-07-31T07:14:36;6.07;;;4.45;;